Time;durP1;ratioP1;P1;durP2;ratioP2;P2;SDS_P1;SDS_P2;PMS_P1;PMS_P2;Temp;Humidity;BMP_temperature;BMP_pressure;BME280_temperature;BME280_humidity;BME280_pressure;Samples;Min_cycle;Max_cycle;Signal;HPM_P1;HPM_P2
2022/08/17 00:01:56;;;;;;;20.65;14.40;;;21.20;99.10;;;;;;4231435;28;20043;-84
2022/08/17 00:03:57;;;;;;;24.05;16.15;;;21.20;99.20;;;;;;4230919;28;20047;-85
2022/08/17 00:06:07;;;;;;;22.85;15.15;;;21.20;99.20;;;;;;4231170;28;20047;-85
2022/08/17 00:08:08;;;;;;;25.80;15.77;;;21.10;99.30;;;;;;4230793;28;20043;-84
2022/08/17 00:10:09;;;;;;;27.05;16.30;;;21.10;99.20;;;;;;4230976;28;20105;-84
2022/08/17 00:12:10;;;;;;;21.67;14.68;;;21.10;99.30;;;;;;4231023;28;20476;-85
2022/08/17 00:14:14;;;;;;;23.50;15.18;;;21.10;99.40;;;;;;4230891;28;20051;-85
2022/08/17 00:16:21;;;;;;;25.83;15.25;;;21.10;99.50;;;;;;4231282;28;20051;-84
2022/08/17 00:18:22;;;;;;;27.67;16.35;;;21.10;99.60;;;;;;4231122;28;20126;-84
2022/08/17 00:20:23;;;;;;;22.80;15.27;;;21.10;99.60;;;;;;4230746;28;20055;-85
2022/08/17 00:22:24;;;;;;;26.35;15.57;;;21.00;99.60;;;;;;4230420;28;20043;-84
2022/08/17 00:24:24;;;;;;;24.48;15.32;;;21.00;99.70;;;;;;4230591;28;20051;-85
2022/08/17 00:26:26;;;;;;;24.10;16.38;;;21.00;99.70;;;;;;4230666;28;20074;-84
2022/08/17 00:28:28;;;;;;;22.80;15.20;;;21.00;99.80;;;;;;4231144;28;20138;-85
2022/08/17 00:30:29;;;;;;;22.88;15.23;;;20.90;99.80;;;;;;4195799;28;20049;-84
2022/08/17 00:32:36;;;;;;;21.55;14.20;;;20.90;99.80;;;;;;4231269;28;20036;-85
2022/08/17 00:34:38;;;;;;;27.38;15.70;;;20.90;99.90;;;;;;4234168;28;20040;-84
2022/08/17 00:36:39;;;;;;;25.40;15.57;;;20.80;99.90;;;;;;4234473;28;20046;-84
2022/08/17 00:38:40;;;;;;;22.85;14.50;;;20.80;99.90;;;;;;4234567;28;20465;-85
2022/08/17 00:40:46;;;;;;;24.02;15.50;;;20.80;99.90;;;;;;4215885;28;20079;-84
2022/08/17 00:42:47;;;;;;;22.73;15.15;;;20.80;99.90;;;;;;4234823;28;20114;-84
2022/08/17 00:44:48;;;;;;;21.83;15.23;;;20.80;99.90;;;;;;4234245;28;20483;-85
2022/08/17 00:46:49;;;;;;;21.15;14.50;;;20.70;99.90;;;;;;4234614;28;20078;-85
2022/08/17 00:48:50;;;;;;;20.30;13.82;;;20.70;99.90;;;;;;4233461;28;20051;-84
2022/08/17 00:51:00;;;;;;;23.17;14.75;;;20.70;99.90;;;;;;4233516;28;20098;-84
2022/08/17 00:53:01;;;;;;;20.83;13.70;;;20.70;99.90;;;;;;4234222;28;20039;-84
2022/08/17 00:55:03;;;;;;;23.10;15.10;;;20.60;99.90;;;;;;4234415;28;20036;-84
2022/08/17 00:57:16;;;;;;;20.55;13.43;;;20.60;99.90;;;;;;4215602;28;20055;-84
2022/08/17 00:59:21;;;;;;;21.35;14.95;;;20.60;99.90;;;;;;4249624;27;20047;-84
2022/08/17 01:01:24;;;;;;;21.17;13.75;;;20.60;99.90;;;;;;4233568;28;20058;-85
2022/08/17 01:03:25;;;;;;;22.15;14.15;;;20.60;99.90;;;;;;4234016;28;20054;-84
2022/08/17 01:05:29;;;;;;;20.63;13.35;;;20.50;99.90;;;;;;4215598;28;20055;-85
2022/08/17 01:07:30;;;;;;;18.52;12.73;;;20.50;99.90;;;;;;4233558;28;20043;-84
2022/08/17 01:09:32;;;;;;;14.63;10.20;;;20.40;99.90;;;;;;4215090;28;20504;-84
2022/08/17 01:11:35;;;;;;;14.13;10.35;;;20.40;99.90;;;;;;4232353;28;20415;-85
2022/08/17 01:13:39;;;;;;;12.88;8.77;;;20.30;99.90;;;;;;4232828;28;20083;-84
2022/08/17 01:15:53;;;;;;;10.02;7.60;;;20.20;99.80;;;;;;4233049;28;20395;-85
2022/08/17 01:17:54;;;;;;;10.27;8.00;;;20.10;99.70;;;;;;4233054;28;20047;-84
2022/08/17 01:19:56;;;;;;;11.32;8.23;;;20.00;99.70;;;;;;4232985;28;20047;-83
2022/08/17 01:22:13;;;;;;;13.43;8.35;;;19.90;99.70;;;;;;4232838;28;20052;-83
2022/08/17 01:24:14;;;;;;;18.45;9.23;;;19.80;99.50;;;;;;4231040;28;20067;-84
2022/08/17 01:26:15;;;;;;;12.32;8.25;;;19.70;99.70;;;;;;4216899;28;20040;-84
2022/08/17 01:28:16;;;;;;;13.13;8.43;;;19.70;99.90;;;;;;4216184;28;20040;-84
2022/08/17 01:30:17;;;;;;;14.40;8.38;;;19.60;99.80;;;;;;4216070;28;20511;-85
2022/08/17 01:32:18;;;;;;;10.63;7.72;;;19.60;99.80;;;;;;4231205;28;20044;-85
2022/08/17 01:34:20;;;;;;;12.60;8.20;;;19.60;99.80;;;;;;4215905;28;20036;-85
2022/08/17 01:36:21;;;;;;;14.65;8.75;;;19.50;99.80;;;;;;4215169;28;20155;-84
2022/08/17 01:38:23;;;;;;;12.48;7.95;;;19.50;99.90;;;;;;4215782;28;20547;-85
2022/08/17 01:40:34;;;;;;;12.30;8.30;;;19.50;99.90;;;;;;4200151;28;20524;-85
2022/08/17 01:42:56;;;;;;;13.18;8.48;;;19.10;99.90;;;;;;4219683;28;20047;-85
2022/08/17 01:45:03;;;;;;;14.68;7.80;;;19.40;99.90;;;;;;4232619;28;20050;-85
2022/08/17 01:47:04;;;;;;;14.45;8.85;;;19.40;99.90;;;;;;4233134;28;20044;-85
2022/08/17 01:49:08;;;;;;;11.45;8.23;;;19.40;99.90;;;;;;4232748;28;20040;-85
2022/08/17 01:51:09;;;;;;;15.98;8.98;;;19.30;99.80;;;;;;4232832;28;20518;-85
2022/08/17 01:53:19;;;;;;;17.92;9.88;;;19.30;99.80;;;;;;4233038;28;20051;-85
2022/08/17 01:55:27;;;;;;;19.60;10.98;;;19.30;99.90;;;;;;4233487;28;20484;-85
2022/08/17 01:57:28;;;;;;;17.33;9.60;;;19.30;99.90;;;;;;4232944;28;20092;-85
2022/08/17 01:59:29;;;;;;;13.68;9.00;;;19.30;99.90;;;;;;4248466;27;20047;-85
2022/08/17 02:01:32;;;;;;;15.60;8.63;;;19.30;99.90;;;;;;4232990;28;20082;-85
2022/08/17 02:03:35;;;;;;;15.00;8.43;;;19.30;99.90;;;;;;4248836;27;20534;-85
2022/08/17 02:05:36;;;;;;;12.80;8.30;;;19.30;99.90;;;;;;4233162;28;20051;-85
2022/08/17 02:07:37;;;;;;;15.18;9.00;;;19.30;99.90;;;;;;4215026;28;20043;-86
2022/08/17 02:09:37;;;;;;;15.13;8.43;;;19.30;99.90;;;;;;4233037;28;20476;-84
2022/08/17 02:11:38;;;;;;;14.93;8.35;;;19.30;99.90;;;;;;4232460;28;20123;-84
2022/08/17 02:13:39;;;;;;;15.18;8.90;;;19.30;99.90;;;;;;4232382;28;20040;-85
2022/08/17 02:15:40;;;;;;;16.90;8.82;;;19.30;99.90;;;;;;4232533;28;20122;-85
2022/08/17 02:17:41;;;;;;;85.70;10.82;;;19.30;99.90;;;;;;4232686;28;20040;-85
2022/08/17 02:19:42;;;;;;;20.13;9.05;;;19.20;99.90;;;;;;4232490;28;20090;-84
2022/08/17 02:21:48;;;;;;;12.52;8.40;;;19.20;99.90;;;;;;4214320;28;20131;-84
2022/08/17 02:23:49;;;;;;;26.00;8.77;;;19.20;99.90;;;;;;4197303;28;20057;-85
2022/08/17 02:25:50;;;;;;;59.65;9.55;;;19.20;99.90;;;;;;4232460;28;20047;-85
2022/08/17 02:27:50;;;;;;;15.88;9.02;;;19.10;99.90;;;;;;4232418;28;20040;-84
2022/08/17 02:29:51;;;;;;;22.00;8.95;;;19.10;99.90;;;;;;4232477;28;20039;-84
2022/08/17 02:31:52;;;;;;;31.33;9.05;;;19.20;99.90;;;;;;4231954;28;20079;-84
2022/08/17 02:33:53;;;;;;;15.52;9.35;;;19.10;99.90;;;;;;4231989;28;20384;-84
2022/08/17 02:35:54;;;;;;;13.93;8.00;;;19.10;99.90;;;;;;4232198;28;20049;-84
2022/08/17 02:37:54;;;;;;;14.23;7.60;;;19.10;99.90;;;;;;4213277;28;20052;-84
2022/08/17 02:39:57;;;;;;;28.77;9.43;;;19.10;99.90;;;;;;4197309;28;20052;-84
2022/08/17 02:42:02;;;;;;;13.88;8.85;;;19.10;99.90;;;;;;4232187;28;20046;-84
2022/08/17 02:44:04;;;;;;;14.00;9.20;;;19.10;99.90;;;;;;4231372;28;20073;-85
2022/08/17 02:46:05;;;;;;;11.82;8.20;;;19.10;99.90;;;;;;4231535;28;20040;-84
2022/08/17 02:48:06;;;;;;;17.42;9.20;;;19.10;99.90;;;;;;4230878;28;20097;-84
2022/08/17 02:50:10;;;;;;;23.95;8.95;;;19.10;99.90;;;;;;4212906;28;20135;-85
2022/08/17 02:52:11;;;;;;;29.90;8.30;;;19.10;99.90;;;;;;4231433;28;20492;-84
2022/08/17 02:54:11;;;;;;;17.25;8.40;;;19.10;99.90;;;;;;4231684;28;20040;-85
2022/08/17 02:56:12;;;;;;;34.70;7.55;;;19.00;99.90;;;;;;4245824;27;20046;-85
2022/08/17 02:58:13;;;;;;;60.20;8.65;;;19.00;99.90;;;;;;4231354;28;20056;-85
2022/08/17 03:00:20;;;;;;;29.23;7.80;;;19.00;99.90;;;;;;4226828;28;20039;-85
2022/08/17 03:02:20;;;;;;;10.95;8.18;;;19.00;99.90;;;;;;4232047;28;20404;-84
2022/08/17 03:04:21;;;;;;;23.48;7.55;;;19.00;99.90;;;;;;4213457;28;20044;-84
2022/08/17 03:06:22;;;;;;;12.60;8.07;;;18.90;99.90;;;;;;4230950;28;20039;-84
2022/08/17 03:08:24;;;;;;;19.00;7.78;;;18.90;99.90;;;;;;4230456;28;20058;-84
2022/08/17 03:10:25;;;;;;;12.48;6.78;;;18.90;99.90;;;;;;4231733;28;20119;-84
2022/08/17 03:12:30;;;;;;;14.35;6.65;;;18.90;99.90;;;;;;4231389;28;20043;-84
2022/08/17 03:14:31;;;;;;;13.82;6.80;;;18.80;99.90;;;;;;4231792;28;20050;-84
2022/08/17 03:16:32;;;;;;;11.27;8.00;;;18.80;99.90;;;;;;4231694;28;20122;-84
2022/08/17 03:18:32;;;;;;;85.38;8.68;;;18.80;99.90;;;;;;4231765;28;20046;-85
2022/08/17 03:20:35;;;;;;;25.85;7.45;;;18.80;99.90;;;;;;4231660;28;20044;-85
2022/08/17 03:22:38;;;;;;;19.75;6.88;;;18.80;99.90;;;;;;4231703;28;20051;-85
2022/08/17 03:24:39;;;;;;;17.45;7.78;;;18.80;99.90;;;;;;4231515;28;20560;-85
2022/08/17 03:26:40;;;;;;;9.15;7.60;;;18.70;99.90;;;;;;4225825;28;20071;-85
2022/08/17 03:28:40;;;;;;;11.70;6.70;;;18.80;99.90;;;;;;4246859;27;20047;-85
2022/08/17 03:30:41;;;;;;;13.50;7.85;;;18.80;99.90;;;;;;4213368;28;20476;-85
2022/08/17 03:32:44;;;;;;;11.52;8.45;;;18.70;99.90;;;;;;4231158;28;20495;-85
2022/08/17 03:34:45;;;;;;;21.85;8.02;;;18.70;99.90;;;;;;4231364;28;20077;-85
2022/08/17 03:36:46;;;;;;;9.93;7.35;;;18.70;99.90;;;;;;4247008;27;20047;-85
2022/08/17 03:38:47;;;;;;;10.68;7.55;;;18.70;99.90;;;;;;4231265;28;20081;-85
2022/08/17 03:40:49;;;;;;;25.48;7.80;;;18.70;99.90;;;;;;4231369;28;20071;-85
2022/08/17 03:42:52;;;;;;;16.65;8.32;;;18.70;99.90;;;;;;4231927;28;20078;-85
2022/08/17 03:44:56;;;;;;;11.43;8.07;;;18.70;99.90;;;;;;4231318;28;20084;-85
2022/08/17 03:56:42;;;;;;;12.63;7.88;;;18.60;99.90;;;;;;4231221;28;20051;-85
2022/08/17 03:58:43;;;;;;;73.65;9.35;;;18.60;99.90;;;;;;4231075;28;20072;-85
2022/08/17 04:00:44;;;;;;;39.63;8.30;;;18.50;99.90;;;;;;4231041;28;20036;-85
2022/08/17 04:02:45;;;;;;;40.33;8.07;;;18.60;99.90;;;;;;4230672;28;20044;-85
2022/08/17 04:04:49;;;;;;;8.75;7.47;;;18.50;99.90;;;;;;4231378;28;20055;-85
2022/08/17 04:06:50;;;;;;;29.38;8.82;;;18.60;99.90;;;;;;4247196;27;20042;-85
2022/08/17 04:08:50;;;;;;;11.68;8.20;;;18.50;99.90;;;;;;4235024;28;20128;-84
2022/08/17 04:10:51;;;;;;;9.43;7.43;;;18.50;99.90;;;;;;4234247;28;20079;-85
2022/08/17 04:12:53;;;;;;;14.57;8.38;;;18.50;99.90;;;;;;4236366;28;20047;-83
2022/08/17 04:14:54;;;;;;;33.83;9.20;;;18.50;99.90;;;;;;4235768;28;20044;-83
2022/08/17 04:16:55;;;;;;;53.58;8.35;;;18.50;99.90;;;;;;4235032;28;20047;-83
2022/08/17 04:18:55;;;;;;;20.95;8.55;;;18.50;99.90;;;;;;4234037;28;20058;-83
2022/08/17 04:20:56;;;;;;;41.85;9.55;;;18.50;99.90;;;;;;4242225;27;20042;-83
2022/08/17 04:23:08;;;;;;;10.10;7.82;;;18.40;99.90;;;;;;4250852;27;20471;-83
2022/08/17 04:25:14;;;;;;;24.08;9.10;;;18.40;99.90;;;;;;4250641;27;20043;-82
2022/08/17 04:27:15;;;;;;;12.27;8.55;;;18.40;99.90;;;;;;4232947;28;20050;-85
2022/08/17 04:29:17;;;;;;;11.30;9.15;;;18.50;99.90;;;;;;4250582;27;20047;-83
2022/08/17 04:31:19;;;;;;;39.65;9.48;;;18.50;99.90;;;;;;4250445;27;20088;-82
2022/08/17 04:33:23;;;;;;;62.72;9.95;;;18.50;99.90;;;;;;4266735;27;20111;-82
2022/08/17 04:35:27;;;;;;;12.60;8.27;;;18.50;99.90;;;;;;4251039;27;20043;-83
2022/08/17 04:37:27;;;;;;;121.28;10.93;;;18.50;99.90;;;;;;4252386;27;20035;-83
2022/08/17 04:39:30;;;;;;;21.00;9.00;;;18.50;99.90;;;;;;4251487;27;20043;-82
2022/08/17 04:43:54;;;;;;;13.55;8.50;;;18.50;99.90;;;;;;4235620;27;20043;-85
2022/08/17 04:45:59;;;;;;;13.15;8.68;;;18.50;99.90;;;;;;4232319;28;20447;-85
2022/08/17 04:48:00;;;;;;;13.70;9.10;;;18.50;99.90;;;;;;4266824;27;20092;-84
2022/08/17 04:50:02;;;;;;;18.58;10.35;;;18.50;99.90;;;;;;4250608;27;20074;-86
2022/08/17 04:52:03;;;;;;;14.95;10.40;;;18.60;99.90;;;;;;4266601;27;20505;-83
2022/08/17 04:54:10;;;;;;;85.30;12.82;;;18.60;99.90;;;;;;4250977;27;20035;-82
2022/08/17 04:56:14;;;;;;;16.52;11.13;;;18.40;99.90;;;;;;4243753;27;20056;-82
2022/08/17 04:58:15;;;;;;;19.42;10.73;;;18.70;99.90;;;;;;4215889;28;20048;-83
2022/08/17 05:00:16;;;;;;;18.90;11.18;;;18.70;99.90;;;;;;4247592;27;20196;-82
2022/08/17 05:02:17;;;;;;;19.23;12.55;;;18.70;99.90;;;;;;4236844;27;20043;-82
2022/08/17 05:04:23;;;;;;;16.33;11.20;;;18.70;99.90;;;;;;4227927;28;20040;-83
2022/08/17 05:06:25;;;;;;;20.30;9.35;;;18.70;99.90;;;;;;4239866;27;20089;-83
2022/08/17 05:08:27;;;;;;;72.32;12.32;;;18.70;99.90;;;;;;4242107;27;20503;-83
2022/08/17 05:10:31;;;;;;;29.30;11.52;;;18.80;99.90;;;;;;4237495;27;20053;-83
2022/08/17 05:12:32;;;;;;;15.70;12.05;;;18.80;99.90;;;;;;4234463;27;20114;-82
2022/08/17 05:14:33;;;;;;;38.35;12.07;;;18.80;99.90;;;;;;4239225;27;20040;-82
2022/08/17 05:16:35;;;;;;;41.92;12.18;;;18.80;99.90;;;;;;4203792;28;20052;-83
2022/08/17 05:18:38;;;;;;;49.63;13.05;;;18.90;99.90;;;;;;4239091;27;21405;-82
2022/08/17 05:20:40;;;;;;;41.97;12.38;;;18.90;99.90;;;;;;4237398;27;20076;-82
2022/08/17 05:22:58;;;;;;;38.33;11.98;;;18.90;99.90;;;;;;4234024;27;20533;-83
2022/08/17 05:24:59;;;;;;;19.88;12.68;;;18.90;99.90;;;;;;4234235;27;20050;-82
2022/08/17 05:27:00;;;;;;;19.38;12.15;;;18.90;99.90;;;;;;4248473;27;20043;-82
2022/08/17 05:29:01;;;;;;;22.67;11.63;;;19.00;99.90;;;;;;4261781;27;20050;-82
2022/08/17 05:31:05;;;;;;;21.38;12.38;;;19.00;99.90;;;;;;4238380;27;20511;-83
2022/08/17 05:33:09;;;;;;;17.67;12.18;;;19.00;99.90;;;;;;4223946;28;20466;-82
2022/08/17 05:35:10;;;;;;;21.83;12.45;;;19.10;99.90;;;;;;4238973;27;20044;-81
2022/08/17 05:37:10;;;;;;;19.00;11.38;;;19.10;99.90;;;;;;4242805;27;20393;-82
2022/08/17 05:39:13;;;;;;;59.60;11.98;;;19.10;99.90;;;;;;4244182;27;20039;-82
2022/08/17 05:41:13;;;;;;;15.75;11.75;;;19.10;99.90;;;;;;4249084;27;20045;-82
2022/08/17 05:43:18;;;;;;;17.95;12.63;;;19.10;99.90;;;;;;4219209;28;20167;-83
2022/08/17 05:45:20;;;;;;;19.23;12.98;;;19.10;99.90;;;;;;4237842;28;20088;-82
2022/08/17 05:47:23;;;;;;;19.58;11.68;;;19.10;99.90;;;;;;4237692;28;20077;-82
2022/08/17 05:49:27;;;;;;;16.70;11.50;;;19.10;99.90;;;;;;4220207;28;20110;-82
2022/08/17 05:51:37;;;;;;;34.40;13.10;;;19.10;99.90;;;;;;4237957;28;20138;-81
2022/08/17 05:53:53;;;;;;;27.65;13.05;;;19.20;99.90;;;;;;4238489;28;20043;-82
2022/08/17 05:56:12;;;;;;;16.60;13.23;;;19.10;99.90;;;;;;4238480;28;20040;-82
2022/08/17 05:58:19;;;;;;;17.30;11.63;;;19.10;99.90;;;;;;4237126;28;20071;-82
2022/08/17 06:00:27;;;;;;;15.30;12.05;;;19.10;99.90;;;;;;4219785;28;20044;-82
2022/08/17 06:02:47;;;;;;;19.38;13.38;;;19.10;99.90;;;;;;4219105;28;20051;-82
2022/08/17 06:05:08;;;;;;;18.98;13.40;;;19.10;99.90;;;;;;4236925;28;20047;-82
2022/08/17 06:07:14;;;;;;;18.33;12.70;;;19.20;99.90;;;;;;4236142;28;20044;-82
2022/08/17 06:09:30;;;;;;;22.45;13.73;;;19.20;99.90;;;;;;4235640;28;20058;-82
2022/08/17 06:11:59;;;;;;;21.98;14.45;;;19.30;99.90;;;;;;4234510;28;20036;-83
2022/08/17 06:14:17;;;;;;;24.83;15.43;;;19.30;99.90;;;;;;4232219;28;20040;-83
2022/08/17 06:16:25;;;;;;;20.10;14.15;;;19.30;99.90;;;;;;4214787;28;20055;-82
2022/08/17 06:18:33;;;;;;;25.45;15.43;;;19.30;99.90;;;;;;4214686;28;20097;-83
2022/08/17 06:20:59;;;;;;;24.13;16.77;;;19.40;99.90;;;;;;4214359;28;20048;-83
2022/08/17 06:23:13;;;;;;;25.83;15.55;;;19.40;99.90;;;;;;4222585;28;20447;-83
2022/08/17 06:25:13;;;;;;;28.58;16.88;;;19.30;99.90;;;;;;4236945;27;20559;-84
2022/08/17 06:27:30;;;;;;;27.38;16.65;;;19.40;99.90;;;;;;4224089;28;20048;-83
2022/08/17 06:29:51;;;;;;;24.70;16.52;;;19.40;99.90;;;;;;4250651;27;20065;-84
2022/08/17 06:31:53;;;;;;;30.63;16.85;;;19.40;99.90;;;;;;4235007;28;20483;-82
2022/08/17 06:33:56;;;;;;;27.60;18.33;;;19.40;99.90;;;;;;4214507;28;20411;-84
2022/08/17 06:36:12;;;;;;;29.73;18.55;;;19.40;99.90;;;;;;4233288;28;20048;-83
2022/08/17 06:38:18;;;;;;;28.40;17.08;;;19.40;99.90;;;;;;4215103;28;20055;-83
2022/08/17 06:40:45;;;;;;;32.70;18.55;;;19.50;99.90;;;;;;4231515;28;20093;-83
2022/08/17 06:42:51;;;;;;;29.83;17.92;;;19.60;99.90;;;;;;4216543;28;20055;-83
2022/08/17 06:45:01;;;;;;;30.33;18.15;;;19.60;99.90;;;;;;4225952;28;20130;-83
2022/08/17 06:47:11;;;;;;;29.95;18.63;;;19.60;99.90;;;;;;4232228;28;20455;-83
2022/08/17 06:49:25;;;;;;;33.47;19.02;;;19.60;99.90;;;;;;4235472;27;20479;-83
2022/08/17 06:51:34;;;;;;;34.67;18.98;;;19.70;99.90;;;;;;4248585;27;20178;-83
2022/08/17 06:53:38;;;;;;;31.30;19.17;;;19.70;99.90;;;;;;4214574;28;20137;-83
2022/08/17 06:56:00;;;;;;;31.27;18.23;;;19.80;99.90;;;;;;4213750;28;20056;-84
2022/08/17 06:58:06;;;;;;;38.17;19.13;;;19.80;99.90;;;;;;4248889;27;20042;-83
2022/08/17 07:00:15;;;;;;;31.27;19.58;;;19.80;99.90;;;;;;4249354;27;20039;-84
2022/08/17 07:02:30;;;;;;;43.67;19.58;;;19.80;99.90;;;;;;4238951;27;20043;-84
2022/08/17 07:04:33;;;;;;;34.45;18.38;;;19.80;99.90;;;;;;4232247;28;20044;-83
2022/08/17 07:06:45;;;;;;;35.17;21.08;;;19.90;99.90;;;;;;4232351;28;20048;-83
2022/08/17 07:09:04;;;;;;;36.00;20.55;;;19.90;99.90;;;;;;4231695;28;20040;-83
2022/08/17 07:11:44;;;;;;;31.50;19.75;;;19.90;99.90;;;;;;4231897;28;20421;-83
2022/08/17 07:14:15;;;;;;;36.38;19.63;;;20.00;99.90;;;;;;4231110;28;20074;-83
2022/08/17 07:16:21;;;;;;;33.08;20.38;;;20.10;99.90;;;;;;4230525;28;20078;-84
2022/08/17 07:18:24;;;;;;;39.03;22.33;;;20.10;99.90;;;;;;4219398;28;20048;-84
2022/08/17 07:20:26;;;;;;;39.72;21.77;;;20.20;99.90;;;;;;4230975;28;20051;-84
2022/08/17 07:22:54;;;;;;;37.53;22.38;;;20.20;99.90;;;;;;4231207;28;20043;-83
2022/08/17 07:25:01;;;;;;;41.55;22.65;;;20.30;99.90;;;;;;4242155;27;20093;-84
2022/08/17 07:27:26;;;;;;;50.85;26.92;;;20.30;99.90;;;;;;4211444;28;20507;-84
2022/08/17 07:29:27;;;;;;;51.20;28.73;;;20.40;99.90;;;;;;4218188;28;20044;-84
2022/08/17 07:31:30;;;;;;;49.45;26.05;;;20.40;99.90;;;;;;4227016;28;20031;-84
2022/08/17 07:33:35;;;;;;;51.22;27.58;;;20.50;99.90;;;;;;4228869;28;20044;-83
2022/08/17 07:35:39;;;;;;;50.65;28.88;;;20.50;99.90;;;;;;4230960;28;20071;-83
2022/08/17 07:38:06;;;;;;;61.10;31.05;;;20.60;99.90;;;;;;4231146;28;20480;-84
2022/08/17 07:40:33;;;;;;;55.63;28.90;;;20.60;99.90;;;;;;4230908;28;20054;-83
2022/08/17 07:42:34;;;;;;;60.75;32.22;;;20.70;99.90;;;;;;4230049;28;20487;-82
2022/08/17 07:44:49;;;;;;;65.90;32.60;;;20.70;99.90;;;;;;4230900;28;20054;-83
2022/08/17 07:49:11;;;;;;;71.13;33.78;;;20.80;99.90;;;;;;4214877;28;20085;-83
2022/08/17 07:51:17;;;;;;;71.00;34.67;;;20.80;99.90;;;;;;4215328;28;20159;-83
2022/08/17 07:53:23;;;;;;;74.18;35.50;;;20.90;99.90;;;;;;4214913;28;20067;-83
2022/08/17 07:55:28;;;;;;;72.82;34.95;;;20.90;99.90;;;;;;4214020;28;20052;-84
2022/08/17 07:57:34;;;;;;;59.47;30.75;;;20.90;99.90;;;;;;4197148;28;20048;-84
2022/08/17 07:59:37;;;;;;;62.70;31.20;;;21.00;99.90;;;;;;4230414;28;20066;-84
2022/08/17 08:01:39;;;;;;;58.42;28.70;;;21.10;99.90;;;;;;4229335;28;20052;-84
2022/08/17 08:03:43;;;;;;;53.75;29.08;;;21.20;99.90;;;;;;4230798;28;20050;-83
2022/08/17 08:05:56;;;;;;;52.15;27.48;;;21.20;99.90;;;;;;4214531;28;20077;-83
2022/08/17 08:08:16;;;;;;;52.55;27.20;;;21.30;99.90;;;;;;4196988;28;20107;-84
2022/08/17 08:10:31;;;;;;;54.03;28.15;;;21.40;99.90;;;;;;4196576;28;20048;-83
2022/08/17 08:12:45;;;;;;;50.78;27.50;;;21.60;99.90;;;;;;4195975;28;20048;-84
2022/08/17 08:15:12;;;;;;;51.08;28.70;;;21.70;99.90;;;;;;4196654;28;20146;-83
2022/08/17 08:17:25;;;;;;;56.70;29.88;;;21.70;99.90;;;;;;4195592;28;20110;-83
2022/08/17 08:19:28;;;;;;;44.22;26.20;;;21.90;99.90;;;;;;4195674;28;20544;-83
2022/08/17 08:21:47;;;;;;;49.63;27.73;;;21.90;99.90;;;;;;4213543;28;20056;-83
2022/08/17 08:24:08;;;;;;;47.63;27.77;;;22.00;99.90;;;;;;4214877;28;20385;-84
2022/08/17 08:26:30;;;;;;;45.08;27.25;;;22.20;99.90;;;;;;4209565;28;20408;-83
2022/08/17 08:28:49;;;;;;;47.05;25.52;;;22.30;99.90;;;;;;4212833;28;20094;-82
2022/08/17 08:31:00;;;;;;;45.97;26.30;;;22.30;99.90;;;;;;4230375;28;20079;-83
2022/08/17 08:33:31;;;;;;;46.58;24.92;;;22.30;99.90;;;;;;4232341;28;20476;-82
2022/08/17 08:35:44;;;;;;;38.20;23.42;;;22.30;99.90;;;;;;4218057;28;20079;-82
2022/08/17 08:38:14;;;;;;;43.13;25.00;;;22.40;99.90;;;;;;4215405;28;20051;-82
2022/08/17 08:40:35;;;;;;;46.33;25.27;;;22.50;99.90;;;;;;4236246;28;20047;-82
2022/08/17 08:42:55;;;;;;;37.00;23.38;;;22.80;99.90;;;;;;4252386;28;20069;-82
2022/08/17 08:45:21;;;;;;;37.45;23.67;;;23.00;99.90;;;;;;4220592;28;20100;-82
2022/08/17 08:47:50;;;;;;;35.95;22.52;;;23.30;99.90;;;;;;4200477;28;20517;-83
2022/08/17 08:50:36;;;;;;;40.85;23.05;;;23.30;99.90;;;;;;4222714;28;20543;-84
2022/08/17 08:52:59;;;;;;;34.33;21.52;;;23.30;99.90;;;;;;4233269;28;20065;-85
2022/08/17 08:55:21;;;;;;;36.20;23.17;;;23.20;99.90;;;;;;4235033;28;20085;-85
2022/08/17 08:57:30;;;;;;;33.60;21.83;;;23.20;99.90;;;;;;4211881;28;20400;-85
2022/08/17 08:59:39;;;;;;;36.33;23.85;;;23.20;99.90;;;;;;4222944;28;20048;-85
2022/08/17 09:02:00;;;;;;;33.38;21.40;;;23.20;99.90;;;;;;4193369;28;20071;-85
2022/08/17 09:04:30;;;;;;;34.70;20.60;;;23.20;99.90;;;;;;4228209;28;20101;-86
2022/08/17 09:06:38;;;;;;;39.90;21.52;;;23.10;99.90;;;;;;4208678;28;20040;-86
2022/08/17 09:08:58;;;;;;;34.83;20.95;;;23.00;99.90;;;;;;4220051;28;20050;-85
2022/08/17 09:11:10;;;;;;;29.77;19.25;;;23.00;99.90;;;;;;4219497;28;20047;-85
2022/08/17 09:13:35;;;;;;;32.42;20.58;;;22.90;99.90;;;;;;4203596;28;20044;-84
2022/08/17 09:15:46;;;;;;;31.15;20.20;;;23.00;99.90;;;;;;4222708;28;20455;-85
2022/08/17 09:17:46;;;;;;;33.63;21.35;;;22.90;99.90;;;;;;4226781;28;20040;-85
2022/08/17 09:20:10;;;;;;;29.88;20.27;;;23.00;99.90;;;;;;4221973;28;20442;-85
2022/08/17 09:22:32;;;;;;;35.80;21.50;;;23.00;99.90;;;;;;4202306;28;20147;-83
2022/08/17 09:24:42;;;;;;;31.75;20.80;;;23.00;99.90;;;;;;4210398;28;20524;-87
2022/08/17 09:26:57;;;;;;;32.47;22.15;;;23.00;99.90;;;;;;4185236;28;20063;-83
2022/08/17 09:29:04;;;;;;;30.25;19.17;;;23.00;99.90;;;;;;4197325;28;20190;-84
2022/08/17 09:31:34;;;;;;;32.20;20.23;;;22.90;99.90;;;;;;4215705;28;20147;-87
2022/08/17 09:33:42;;;;;;;34.03;19.58;;;23.00;99.90;;;;;;4198175;28;20057;-83
2022/08/17 09:36:03;;;;;;;29.52;20.25;;;23.20;99.90;;;;;;4200084;28;20094;-85
2022/08/17 09:38:32;;;;;;;33.90;21.33;;;23.30;99.90;;;;;;4215517;28;20067;-85
2022/08/17 09:40:41;;;;;;;33.67;21.35;;;23.60;99.90;;;;;;4219098;28;20106;-86
2022/08/17 09:43:29;;;;;;;30.08;18.15;;;24.00;99.90;;;;;;4234626;27;20446;-87
2022/08/17 09:45:41;;;;;;;28.52;18.48;;;24.50;99.90;;;;;;4198918;28;20047;-86
2022/08/17 09:47:50;;;;;;;26.27;18.67;;;24.60;99.90;;;;;;4222249;27;20053;-87
2022/08/17 09:50:03;;;;;;;22.38;14.05;;;24.80;99.90;;;;;;4224780;28;20059;-86
2022/08/17 09:52:24;;;;;;;24.63;17.30;;;25.20;99.90;;;;;;4256170;27;20051;-84
2022/08/17 09:54:33;;;;;;;29.15;17.20;;;25.50;99.80;;;;;;4213560;28;20052;-85
2022/08/17 09:56:38;;;;;;;23.73;15.35;;;25.80;99.20;;;;;;4197652;28;20045;-85
2022/08/17 09:58:58;;;;;;;25.25;15.70;;;25.90;99.00;;;;;;4215476;28;20075;-84
2022/08/17 10:01:28;;;;;;;25.38;16.95;;;25.80;98.30;;;;;;4231843;27;20495;-85
2022/08/17 10:03:53;;;;;;;26.48;16.75;;;25.50;97.80;;;;;;4197140;28;20476;-85
2022/08/17 10:06:14;;;;;;;23.88;16.88;;;25.40;98.70;;;;;;4214957;28;20119;-85
2022/08/17 10:08:30;;;;;;;25.75;17.20;;;25.30;98.60;;;;;;4197102;28;20056;-85
2022/08/17 10:11:08;;;;;;;22.95;16.48;;;25.10;98.20;;;;;;4230059;28;20059;-84
2022/08/17 10:13:31;;;;;;;24.23;16.75;;;24.80;97.60;;;;;;4228800;28;20138;-84
2022/08/17 10:15:57;;;;;;;27.83;17.92;;;24.60;98.50;;;;;;4220201;28;20039;-85
2022/08/17 10:18:21;;;;;;;27.50;17.33;;;24.40;98.30;;;;;;4210107;28;20044;-85
2022/08/17 10:20:42;;;;;;;26.25;15.70;;;24.30;98.70;;;;;;4243761;27;20043;-86
2022/08/17 10:27:51;;;;;;;25.67;15.13;;;24.10;99.00;;;;;;4219751;28;20119;-86
2022/08/17 10:29:57;;;;;;;23.35;14.88;;;23.90;98.70;;;;;;4219014;28;20081;-85
2022/08/17 10:32:04;;;;;;;23.25;14.63;;;23.90;99.00;;;;;;4218066;28;20089;-85
2022/08/17 10:34:24;;;;;;;25.35;15.27;;;23.80;98.80;;;;;;4230137;28;20074;-85
2022/08/17 10:36:53;;;;;;;24.05;15.38;;;23.70;98.60;;;;;;4207386;28;20044;-84
2022/08/17 10:39:19;;;;;;;20.60;13.98;;;23.70;98.60;;;;;;4216840;28;20055;-85
2022/08/17 10:41:40;;;;;;;16.77;12.75;;;23.70;98.80;;;;;;4232362;27;20051;-85
2022/08/17 10:44:02;;;;;;;17.08;10.73;;;23.80;98.70;;;;;;4231970;27;20054;-85
2022/08/17 10:46:28;;;;;;;20.42;11.00;;;23.90;98.10;;;;;;4217764;28;20404;-85
2022/08/17 10:48:35;;;;;;;19.58;11.55;;;23.90;98.10;;;;;;4209918;28;20047;-85
2022/08/17 10:50:54;;;;;;;18.83;11.88;;;23.90;97.80;;;;;;4227319;28;20047;-86
2022/08/17 10:52:55;;;;;;;18.30;12.13;;;23.90;97.80;;;;;;4203955;28;20041;-85
2022/08/17 10:55:16;;;;;;;17.98;12.35;;;24.00;97.70;;;;;;4225236;28;20043;-85
2022/08/17 10:57:26;;;;;;;18.50;11.38;;;24.00;97.70;;;;;;4219443;28;20510;-84
2022/08/17 10:59:35;;;;;;;17.52;10.30;;;24.00;97.80;;;;;;4209748;28;20047;-85
2022/08/17 11:01:36;;;;;;;16.50;11.38;;;24.00;97.90;;;;;;4242213;27;20274;-85
2022/08/17 11:03:51;;;;;;;16.17;12.00;;;24.10;98.00;;;;;;4197736;28;20048;-84
2022/08/17 11:05:57;;;;;;;16.40;10.25;;;24.10;98.00;;;;;;4218207;28;20056;-86
2022/08/17 11:08:32;;;;;;;16.40;10.73;;;24.10;98.10;;;;;;4219520;28;20126;-86
2022/08/17 11:10:45;;;;;;;17.00;10.90;;;24.10;98.00;;;;;;4219194;28;20480;-85
2022/08/17 11:13:00;;;;;;;13.27;9.32;;;24.10;97.90;;;;;;4222490;28;20471;-86
2022/08/17 11:15:13;;;;;;;17.52;9.20;;;24.10;97.90;;;;;;4204218;28;20041;-86